createdAt,value
2023-05-01T00:00:30.542Z,66.38
2023-05-01T00:01:30.603Z,66.68
2023-05-01T00:02:30.539Z,66.27
2023-05-01T00:03:30.662Z,65.86
2023-05-01T00:04:30.485Z,66.07
2023-05-01T00:05:30.456Z,68.21
2023-05-01T00:06:30.490Z,66.78
2023-05-01T00:07:30.417Z,65.77
2023-05-01T00:08:30.425Z,66.07
2023-05-01T00:09:30.416Z,66.68
2023-05-01T00:10:30.410Z,66.47
2023-05-01T00:11:30.382Z,66.91
2023-05-01T00:12:30.385Z,67.83
2023-05-01T00:13:30.357Z,67.08
2023-05-01T00:14:30.380Z,66.68
2023-05-01T00:15:30.345Z,66.82
2023-05-01T00:16:30.386Z,66.10
2023-05-01T00:17:30.325Z,66.10
2023-05-01T00:18:30.330Z,67.02
2023-05-01T00:19:30.288Z,66.30
2023-05-01T00:20:30.309Z,66.30
2023-05-01T00:21:30.277Z,69.15
2023-05-01T00:22:30.272Z,66.82
2023-05-01T00:23:30.236Z,67.52
2023-05-01T00:24:30.262Z,66.30
2023-05-01T00:25:30.220Z,67.93
2023-05-01T00:26:30.289Z,67.12
2023-05-01T00:27:30.210Z,66.10
2023-05-01T00:28:30.211Z,67.32
2023-05-01T00:29:30.187Z,67.12
2023-05-01T00:30:30.196Z,68.13
2023-05-01T00:31:30.240Z,68.04
2023-05-01T00:32:30.226Z,66.41
2023-05-01T00:33:30.159Z,67.43
2023-05-01T00:34:30.186Z,67.22
2023-05-01T00:35:30.123Z,67.12
2023-05-01T00:36:30.110Z,67.22
2023-05-01T00:37:30.102Z,66.71
2023-05-01T00:38:30.108Z,68.95
2023-05-01T00:39:30.076Z,67.02
2023-05-01T00:40:30.122Z,67.02
2023-05-01T00:41:30.046Z,68.75
2023-05-01T00:42:30.074Z,66.50
2023-05-01T00:43:30.024Z,66.91
2023-05-01T00:44:30.026Z,68.44
2023-05-01T00:45:30.051Z,68.54
2023-05-01T00:46:30.341Z,67.83
2023-05-01T00:47:30.061Z,68.24
2023-05-01T00:48:29.985Z,69.26
2023-05-01T00:49:29.995Z,67.43
2023-05-01T00:50:29.981Z,68.24
2023-05-01T00:51:29.978Z,68.34
2023-05-01T00:52:29.965Z,67.02
2023-05-01T00:53:29.923Z,69.36
2023-05-01T00:54:29.960Z,68.04
2023-05-01T00:55:29.917Z,65.80
2023-05-01T00:56:29.898Z,68.24
2023-05-01T00:57:29.880Z,67.22
2023-05-01T00:58:29.927Z,66.30
2023-05-01T00:59:29.866Z,67.63
2023-05-01T01:00:29.861Z,68.17
2023-05-01T01:01:29.907Z,68.34
2023-05-01T01:02:29.896Z,68.65
2023-05-01T01:03:29.845Z,67.96
2023-05-01T01:04:29.868Z,68.85
2023-05-01T01:05:29.797Z,68.04
2023-05-01T01:06:29.819Z,67.76
2023-05-01T01:07:29.784Z,69.29
2023-05-01T01:08:32.440Z,68.68
2023-05-01T01:09:29.777Z,68.75
2023-05-01T01:10:29.748Z,68.65
2023-05-01T01:11:29.722Z,68.07
2023-05-01T01:12:29.729Z,66.61
2023-05-01T01:13:29.722Z,68.48
2023-05-01T01:14:29.709Z,66.74
2023-05-01T01:15:29.679Z,67.52
2023-05-01T01:16:29.689Z,66.85
2023-05-01T01:17:29.695Z,67.05
2023-05-01T01:18:29.666Z,66.44
2023-05-01T01:19:29.716Z,68.88
2023-05-01T01:20:29.645Z,66.94
2023-05-01T01:21:29.609Z,67.25
2023-05-01T01:22:29.625Z,67.05
2023-05-01T01:23:29.769Z,68.37
2023-05-01T01:24:29.603Z,67.35
2023-05-01T01:25:29.592Z,67.59
2023-05-01T01:26:29.580Z,68.57
2023-05-01T01:27:29.566Z,67.25
2023-05-01T01:28:29.553Z,68.27
2023-05-01T01:29:29.532Z,69.63
2023-05-01T06:00:56.663Z,70.78
2023-05-01T06:01:57.899Z,70.20
2023-05-01T06:02:57.967Z,71.09
2023-05-01T06:03:57.171Z,70.27
2023-05-01T06:04:57.112Z,70.57
2023-05-01T06:05:57.252Z,69.96
2023-05-01T06:06:57.204Z,71.91
2023-05-01T06:07:57.075Z,70.47
2023-05-01T06:08:57.071Z,70.37
2023-05-01T06:09:57.245Z,70.98
2023-05-01T06:10:57.125Z,71.70
2023-05-01T06:11:57.053Z,70.78
2023-05-01T06:13:03.482Z,70.68
2023-05-01T06:13:57.015Z,70.37
2023-05-01T06:14:57.024Z,70.68
2023-05-01T06:15:57.001Z,70.57
2023-05-01T06:16:57.016Z,70.03
2023-05-01T06:17:57.080Z,70.03
2023-05-01T06:18:56.962Z,69.62
2023-05-01T06:19:57.189Z,70.75
2023-05-01T06:20:56.952Z,70.44
2023-05-01T06:21:56.960Z,70.44
2023-05-01T06:22:56.926Z,69.52
2023-05-01T06:23:56.911Z,71.33
2023-05-01T06:24:56.914Z,69.90
2023-05-01T06:25:56.896Z,69.49
2023-05-01T06:26:56.887Z,68.77
2023-05-01T06:27:56.881Z,69.29
2023-05-01T06:28:56.875Z,69.08
2023-05-01T06:29:57.063Z,69.18
2023-05-01T06:30:56.862Z,68.47
2023-05-01T06:31:56.887Z,69.38
2023-05-01T06:32:56.847Z,70.51
2023-05-01T06:33:56.805Z,68.74
2023-05-01T06:34:56.784Z,68.13
2023-05-01T06:35:56.772Z,70.17
2023-05-01T06:36:56.770Z,68.84
2023-05-01T06:37:56.749Z,69.05
2023-05-01T06:38:56.754Z,68.74
2023-05-01T06:39:57.073Z,69.56
2023-05-01T06:40:56.760Z,69.35
2023-05-01T06:41:56.695Z,69.15
2023-05-01T06:42:56.698Z,68.84
2023-05-01T06:43:56.685Z,68.95
2023-05-01T06:44:56.713Z,67.82
2023-05-01T06:45:56.655Z,67.69
2023-05-01T06:46:56.706Z,69.93
2023-05-01T06:47:56.762Z,69.02
2023-05-01T06:48:56.635Z,68.30
2023-05-01T06:49:56.885Z,68.20
2023-05-01T06:50:56.668Z,68.10
2023-05-01T06:51:56.617Z,67.38
2023-05-01T06:52:56.616Z,67.59
2023-05-01T06:53:56.575Z,67.90
2023-05-01T06:54:56.614Z,68.10
2023-05-01T06:55:56.564Z,67.59
2023-05-01T06:56:56.582Z,68.10
2023-05-01T06:57:56.538Z,68.10
2023-05-01T06:58:56.559Z,67.49
2023-05-01T06:59:56.781Z,68.10
2023-05-01T07:00:56.545Z,67.90
2023-05-01T07:01:56.557Z,66.77
2023-05-01T07:02:56.675Z,67.59
2023-05-01T07:03:56.473Z,67.38
2023-05-01T07:04:56.492Z,67.69
2023-05-01T07:05:56.545Z,68.40
2023-05-01T07:06:56.450Z,68.17
2023-05-01T07:08:01.076Z,67.35
2023-05-01T07:08:56.435Z,67.46
2023-05-01T07:09:56.707Z,67.25
2023-05-01T07:10:56.484Z,66.64
2023-05-01T07:11:56.412Z,67.46
2023-05-01T07:12:56.399Z,66.64
2023-05-01T07:13:56.415Z,65.92
2023-05-01T07:14:56.374Z,66.33
2023-05-01T07:15:56.382Z,67.05
2023-05-01T07:16:56.391Z,66.82
2023-05-01T07:17:56.414Z,66.91
2023-05-01T07:18:56.324Z,67.43
2023-05-01T07:19:56.620Z,66.10
2023-05-01T07:20:56.354Z,66.20
2023-05-01T07:21:56.270Z,67.93
2023-05-01T07:22:56.302Z,65.80
2023-05-01T07:23:56.292Z,65.77
2023-05-01T07:24:56.285Z,66.17
2023-05-01T07:25:56.264Z,65.56
2023-05-01T07:26:56.257Z,65.66
2023-05-01T07:27:56.208Z,66.38
2023-05-01T07:28:56.215Z,66.58
2023-05-01T07:29:56.518Z,66.14
2023-05-01T07:30:56.210Z,65.53
2023-05-01T07:31:56.228Z,64.81
2023-05-01T07:32:56.202Z,67.46
2023-05-01T07:33:56.172Z,65.22
2023-05-01T07:34:56.150Z,64.72
2023-05-01T07:35:56.139Z,64.61
2023-05-01T07:36:56.139Z,63.36
2023-05-01T07:37:56.164Z,62.45
2023-05-01T07:38:56.087Z,62.55
2023-05-01T07:39:56.265Z,61.83
2023-05-01T07:40:56.070Z,62.04
2023-05-01T07:41:56.083Z,61.22
2023-05-01T07:42:56.042Z,60.52
2023-05-01T07:43:56.074Z,60.18
2023-05-01T07:44:56.071Z,60.08
2023-05-01T07:45:56.099Z,61.20
2023-05-01T07:46:56.004Z,62.01
2023-05-01T07:47:56.112Z,61.10
2023-05-01T07:48:55.980Z,61.37
2023-05-01T07:49:56.192Z,60.25
2023-05-01T07:50:55.992Z,62.29
2023-05-01T07:51:55.961Z,59.64
2023-05-01T07:52:55.948Z,61.24
2023-05-01T07:53:56.252Z,63.58
2023-05-01T07:54:55.936Z,62.05
2023-05-01T07:55:55.963Z,60.94
2023-05-01T07:56:55.926Z,61.24
2023-05-01T07:57:55.912Z,60.71
2023-05-01T07:58:55.881Z,58.67
2023-05-01T07:59:56.096Z,59.79
2023-05-01T08:00:55.869Z,60.10
2023-05-01T08:01:55.873Z,60.20
2023-05-01T08:02:55.946Z,61.21
2023-05-01T08:03:55.931Z,60.60
2023-05-01T08:04:55.878Z,59.46
2023-05-01T08:05:55.832Z,58.45
2023-05-01T08:06:55.847Z,58.65
2023-05-01T08:07:55.827Z,58.04
2023-05-01T08:08:55.796Z,59.26
2023-05-01T08:09:57.861Z,58.85
2023-05-01T08:10:55.765Z,59.16
2023-05-01T08:11:55.752Z,57.40
2023-05-01T08:12:55.824Z,59.12
2023-05-01T08:13:55.718Z,57.50
2023-05-01T08:14:55.736Z,57.30
2023-05-01T08:15:55.726Z,58.62
2023-05-01T08:16:55.707Z,58.01
2023-05-01T08:17:55.749Z,57.48
2023-05-01T08:18:55.682Z,59.81
2023-05-01T08:19:55.890Z,58.39
2023-05-01T08:20:55.660Z,57.48
2023-05-01T08:21:55.655Z,57.37
2023-05-01T08:22:55.616Z,59.30
2023-05-01T08:23:55.634Z,56.46
2023-05-01T08:24:55.631Z,59.10
2023-05-01T08:25:55.643Z,58.87
2023-05-01T08:26:55.568Z,58.56
2023-05-01T08:27:55.584Z,57.35
2023-05-01T08:28:55.563Z,58.16
2023-05-01T08:29:55.936Z,56.74
2023-05-01T08:30:55.584Z,57.24
2023-05-01T08:31:55.635Z,57.35
2023-05-01T08:32:55.550Z,58.87
2023-05-01T08:33:55.565Z,57.35
2023-05-01T08:34:55.511Z,57.45
2023-05-01T08:35:55.492Z,59.65
2023-05-01T08:36:55.492Z,58.74
2023-05-01T08:37:55.528Z,58.64
2023-05-01T08:38:55.449Z,59.55
2023-05-01T08:39:55.787Z,58.54
2023-05-01T08:40:55.454Z,58.54
2023-05-01T08:41:55.460Z,57.12
2023-05-01T08:42:55.407Z,57.42
2023-05-01T08:43:55.924Z,56.92
2023-05-01T08:44:55.399Z,55.50
2023-05-01T08:45:55.404Z,56.10
2023-05-01T08:46:55.410Z,55.90
2023-05-01T08:47:55.456Z,57.42
2023-05-01T08:48:55.342Z,57.02
2023-05-01T08:49:55.701Z,56.31
2023-05-01T08:50:55.330Z,55.57
2023-05-01T08:51:55.322Z,59.01
2023-05-01T08:52:55.296Z,57.50
2023-05-01T08:53:55.324Z,54.66
2023-05-01T08:54:55.322Z,54.56
2023-05-01T08:55:55.302Z,55.57
2023-05-01T08:56:55.262Z,56.18
2023-05-01T08:57:55.265Z,55.98
2023-05-01T08:58:55.276Z,55.47
2023-05-01T08:59:55.564Z,56.05
2023-05-01T09:00:55.212Z,55.24
2023-05-01T09:01:55.323Z,55.55
2023-05-01T09:02:55.254Z,56.05
2023-05-01T09:03:55.317Z,55.15
2023-05-01T09:04:55.173Z,54.53
2023-05-01T09:05:55.181Z,53.70
2023-05-01T09:06:55.199Z,56.13
2023-05-01T09:07:55.162Z,57.54
2023-05-01T09:08:55.129Z,58.96
2023-05-01T09:09:55.412Z,56.53
2023-05-01T09:10:55.143Z,55.11
2023-05-01T09:11:55.117Z,56.73
2023-05-01T09:12:55.089Z,53.78
2023-05-01T09:13:55.100Z,56.91
2023-05-01T09:14:55.090Z,54.89
2023-05-01T09:15:55.150Z,55.90
2023-05-01T09:16:55.086Z,55.60
2023-05-01T09:17:55.218Z,58.53
2023-05-01T09:18:55.097Z,55.40
2023-05-01T09:19:55.145Z,54.69
2023-05-01T09:20:55.003Z,54.25
2023-05-01T09:21:55.017Z,55.27
2023-05-01T09:22:55.004Z,54.05
2023-05-01T09:23:54.990Z,54.56
2023-05-01T09:24:54.951Z,53.65
2023-05-01T09:25:54.992Z,54.86
2023-05-01T09:26:54.925Z,55.98
2023-05-01T09:27:54.956Z,54.86
2023-05-01T09:28:54.932Z,55.67
2023-05-01T09:29:55.126Z,55.65
2023-05-01T09:30:54.955Z,53.93
2023-05-01T09:31:54.998Z,53.42
2023-05-01T09:32:54.959Z,54.43
2023-05-01T09:33:54.880Z,56.25
2023-05-01T09:34:54.875Z,54.03
2023-05-01T09:35:54.912Z,55.14
2023-05-01T09:36:54.850Z,53.42
2023-05-01T09:37:54.839Z,55.04
2023-05-01T09:38:54.855Z,53.32
2023-05-01T09:39:55.035Z,54.53
2023-05-01T09:40:54.809Z,55.54
2023-05-01T09:41:54.814Z,55.54
2023-05-01T09:42:54.766Z,54.83
2023-05-01T09:43:54.774Z,57.56
2023-05-01T09:44:54.775Z,56.05
2023-05-01T09:45:54.864Z,54.33
2023-05-01T09:46:54.722Z,56.76
2023-05-01T09:47:54.814Z,58.78
2023-05-01T09:48:54.862Z,57.16
2023-05-01T09:49:54.822Z,57.87
2023-05-01T09:50:54.695Z,57.87
2023-05-01T09:51:54.680Z,54.74
2023-05-01T09:52:54.676Z,56.96
2023-05-01T09:53:54.691Z,53.80
2023-05-01T09:54:54.664Z,53.90
2023-05-01T09:55:54.657Z,53.00
2023-05-01T09:56:54.617Z,52.39
2023-05-01T09:57:54.610Z,54.41
2023-05-01T09:58:54.589Z,56.32
2023-05-01T09:59:54.867Z,54.10
2023-05-01T10:00:54.631Z,53.80
2023-05-01T10:01:54.654Z,54.91
2023-05-01T10:02:54.684Z,53.70
2023-05-01T10:03:54.656Z,55.62
2023-05-01T10:04:54.546Z,54.10
2023-05-01T10:05:54.559Z,54.61
2023-05-01T10:06:54.776Z,53.90
2023-05-01T10:07:54.517Z,55.21
2023-05-01T10:08:54.527Z,52.79
2023-05-01T10:09:54.577Z,53.47
2023-05-01T10:10:54.481Z,54.08
2023-05-01T10:11:54.486Z,55.49
2023-05-01T10:12:54.453Z,53.07
2023-05-01T10:13:54.566Z,52.87
2023-05-01T10:14:54.471Z,53.38
2023-05-01T10:15:54.430Z,54.08
2023-05-01T10:16:54.456Z,55.09
2023-05-01T10:17:55.011Z,52.97
2023-05-01T10:18:54.382Z,53.47
2023-05-01T10:19:54.729Z,54.18
2023-05-01T10:20:54.376Z,54.76
2023-05-01T10:21:54.360Z,54.56
2023-05-01T10:22:54.369Z,53.96
2023-05-01T10:23:54.348Z,53.96
2023-05-01T10:24:54.326Z,54.36
2023-05-01T10:25:54.344Z,53.45
2023-05-01T10:26:54.327Z,55.57
2023-05-01T10:27:54.299Z,56.98
2023-05-01T10:28:54.284Z,53.55
2023-05-01T10:29:54.634Z,55.46
2023-05-01T10:30:54.290Z,51.84
2023-05-01T10:31:54.490Z,50.82
2023-05-01T10:32:54.268Z,52.11
2023-05-01T10:33:54.223Z,51.71
2023-05-01T10:34:54.440Z,50.10
2023-05-01T10:35:54.204Z,50.60
2023-05-01T10:36:54.177Z,50.20
2023-05-01T10:37:54.202Z,50.80
2023-05-01T10:38:54.186Z,49.99
2023-05-01T10:39:54.174Z,51.79
2023-05-01T10:40:54.143Z,51.68
2023-05-01T10:41:54.137Z,52.89
2023-05-01T10:42:54.132Z,49.77
2023-05-01T10:43:54.151Z,48.86
2023-05-01T10:44:54.328Z,48.86
2023-05-01T10:45:54.283Z,50.07
2023-05-01T10:46:54.275Z,48.24
2023-05-01T10:47:54.129Z,48.44
2023-05-01T10:48:54.087Z,51.56
2023-05-01T10:49:54.071Z,48.34
2023-05-01T10:50:54.040Z,48.44
2023-05-01T10:51:54.058Z,47.91
2023-05-01T10:52:54.007Z,47.20
2023-05-01T10:53:54.026Z,46.91
2023-05-01T10:54:54.414Z,46.10
2023-05-01T10:55:54.025Z,47.49
2023-05-01T10:56:53.983Z,48.29
2023-05-01T10:57:54.000Z,45.57
2023-05-01T10:58:53.969Z,47.99
2023-05-01T10:59:53.957Z,48.90
2023-05-01T11:00:53.923Z,48.37
2023-05-01T11:01:54.318Z,46.66
2023-05-01T11:02:53.956Z,49.68
2023-05-01T11:03:53.959Z,46.26
2023-05-01T11:04:54.151Z,47.16
2023-05-01T11:05:53.999Z,46.56
2023-05-01T11:06:53.900Z,46.23
2023-05-01T11:07:53.900Z,45.83
2023-05-01T11:08:53.838Z,45.63
2023-05-01T11:09:53.889Z,47.04
2023-05-01T11:10:53.830Z,45.33
2023-05-01T11:11:53.836Z,48.35
2023-05-01T11:12:53.818Z,49.22
2023-05-01T11:13:53.845Z,45.21
2023-05-01T11:14:54.248Z,44.81
2023-05-01T11:15:53.870Z,47.72
2023-05-01T11:16:53.834Z,46.01
2023-05-01T11:17:53.829Z,46.61
2023-05-01T11:18:53.744Z,46.72
2023-05-01T11:19:53.758Z,46.39
2023-05-01T11:20:53.753Z,45.29
2023-05-01T11:21:53.732Z,45.79
2023-05-01T11:22:53.714Z,45.39
2023-05-01T11:23:53.698Z,46.89
2023-05-01T11:24:53.736Z,47.58
2023-05-01T11:25:53.749Z,44.56
2023-05-01T11:26:53.696Z,44.06
2023-05-01T11:27:53.670Z,43.56
2023-05-01T11:28:53.628Z,43.66
2023-05-01T11:29:53.629Z,44.34
2023-05-01T11:30:53.664Z,44.24
2023-05-01T11:31:53.737Z,44.34
2023-05-01T11:32:53.650Z,45.65
2023-05-01T11:33:53.588Z,45.84
2023-05-01T11:34:53.640Z,46.12
2023-05-01T11:35:53.570Z,44.32
2023-05-01T11:36:53.556Z,43.42
2023-05-01T11:37:53.558Z,43.62
2023-05-01T11:38:53.586Z,42.82
2023-05-01T11:39:53.538Z,42.61
2023-05-01T11:40:53.511Z,43.60
2023-05-01T11:41:53.558Z,42.40
2023-05-01T11:42:53.479Z,42.60
2023-05-01T11:43:53.486Z,44.60
2023-05-01T11:44:53.517Z,43.40
2023-05-01T11:45:53.515Z,43.50
2023-05-01T11:46:53.446Z,45.48
2023-05-01T11:47:53.477Z,43.27
2023-05-01T11:48:53.412Z,44.58
2023-05-01T11:49:53.441Z,42.57
2023-05-01T11:50:53.469Z,44.06
2023-05-01T11:51:53.412Z,42.35
2023-05-01T11:52:53.396Z,43.05
2023-05-01T11:53:53.370Z,41.96
2023-05-01T11:54:53.368Z,41.75
2023-05-01T11:55:53.390Z,41.96
2023-05-01T11:56:53.384Z,42.24
2023-05-01T11:57:53.372Z,41.24
2023-05-01T11:58:53.317Z,42.74
2023-05-01T11:59:53.316Z,43.04
2023-05-01T12:00:53.310Z,40.63
2023-05-01T12:01:53.333Z,41.74
2023-05-01T12:02:53.450Z,41.43
2023-05-01T12:03:53.335Z,42.03
2023-05-01T12:04:53.453Z,41.41
2023-05-01T12:05:53.242Z,41.21
2023-05-01T12:06:53.384Z,40.31
2023-05-01T12:07:53.228Z,42.21
2023-05-01T12:08:53.258Z,42.71
2023-05-01T12:09:53.200Z,40.01
2023-05-01T12:10:53.205Z,40.61
2023-05-01T12:11:53.406Z,39.41
2023-05-01T12:12:53.179Z,42.61
2023-05-01T12:13:53.145Z,41.61
2023-05-01T12:14:53.174Z,39.81
2023-05-01T12:15:53.154Z,39.81
2023-05-01T12:16:53.178Z,39.69
2023-05-01T12:17:53.137Z,40.30
2023-05-01T12:18:53.115Z,40.69
2023-05-01T12:19:53.095Z,38.98
2023-05-01T12:20:53.198Z,39.28
2023-05-01T12:21:53.066Z,41.88
2023-05-01T12:22:53.085Z,40.78
2023-05-01T12:23:53.066Z,40.88
2023-05-01T12:24:53.073Z,39.67
2023-05-01T12:25:53.022Z,40.47
2023-05-01T12:26:53.029Z,39.78
2023-05-01T12:27:53.013Z,39.78
2023-05-01T12:28:53.007Z,38.87
2023-05-01T12:29:52.976Z,38.56
2023-05-01T12:30:53.011Z,40.75
2023-05-01T12:31:53.013Z,38.76
2023-05-01T12:32:53.047Z,38.85
2023-05-01T12:33:52.944Z,42.55
2023-05-01T12:34:52.952Z,39.26
2023-05-01T12:35:52.935Z,39.56
2023-05-01T12:36:52.957Z,38.14
2023-05-01T12:37:52.883Z,38.64
2023-05-01T12:38:52.926Z,38.74
2023-05-01T12:39:52.890Z,38.22
2023-05-01T12:40:52.895Z,37.52
2023-05-01T12:41:52.881Z,38.32
2023-05-01T12:42:52.848Z,39.30
2023-05-01T12:43:52.826Z,39.40
2023-05-01T12:44:52.844Z,37.60
2023-05-01T12:45:52.912Z,38.48
2023-05-01T12:46:53.030Z,37.59
2023-05-01T12:47:52.978Z,40.36
2023-05-01T12:48:54.452Z,38.56
2023-05-01T12:49:52.758Z,37.67
2023-05-01T12:50:52.775Z,37.17
2023-05-01T12:51:52.750Z,38.37
2023-05-01T12:52:52.757Z,39.98
2023-05-01T12:53:52.765Z,38.39
2023-05-01T12:54:52.749Z,36.99
2023-05-01T12:55:52.710Z,38.98
2023-05-01T12:56:52.720Z,38.68
2023-05-01T12:57:52.691Z,37.29
2023-05-01T12:58:52.687Z,38.89
2023-05-01T12:59:52.687Z,38.18
2023-05-01T13:00:52.677Z,37.67
2023-05-01T13:01:52.672Z,37.57
2023-05-01T13:02:52.717Z,37.67
2023-05-01T13:03:52.707Z,37.07
2023-05-01T13:04:52.644Z,35.86
2023-05-01T13:05:52.608Z,36.46
2023-05-01T13:06:52.741Z,35.66
2023-05-01T13:07:52.643Z,37.55
2023-05-01T13:08:52.582Z,36.65
2023-05-01T13:09:52.552Z,35.66
2023-05-01T13:10:53.222Z,35.56
2023-05-01T13:11:52.540Z,37.65
2023-05-01T13:12:52.540Z,37.25
2023-05-01T13:13:52.543Z,36.47
2023-05-01T13:14:52.516Z,39.36
2023-05-01T13:15:52.541Z,36.47
2023-05-01T13:16:52.993Z,37.47
2023-05-01T13:17:52.515Z,36.69
2023-05-01T13:18:52.495Z,36.29
2023-05-01T13:19:52.460Z,38.78
2023-05-01T13:20:52.468Z,38.27
2023-05-01T13:21:52.442Z,35.68
2023-05-01T13:22:52.447Z,36.67
2023-05-01T13:23:52.419Z,36.67
2023-05-01T13:24:52.433Z,39.66
2023-05-01T13:25:52.384Z,36.87
2023-05-01T13:26:52.397Z,37.07
2023-05-01T13:27:52.386Z,37.77
2023-05-01T13:28:52.412Z,36.87
2023-05-01T13:29:52.367Z,40.28
2023-05-01T13:30:52.344Z,37.49
2023-05-01T13:31:52.359Z,40.68
2023-05-01T13:32:52.356Z,38.29
2023-05-01T13:33:52.298Z,39.10
2023-05-01T13:34:52.305Z,40.59
2023-05-01T13:35:52.293Z,40.10
2023-05-01T13:36:52.288Z,42.10
2023-05-01T13:37:52.281Z,40.80
2023-05-01T13:38:52.267Z,40.20
2023-05-01T13:39:52.230Z,38.50
2023-05-01T13:40:52.259Z,41.00
2023-05-01T13:41:52.253Z,40.20
2023-05-01T13:42:52.232Z,42.11
2023-05-01T13:43:52.185Z,38.72
2023-05-01T13:44:52.197Z,40.52
2023-05-01T13:45:52.252Z,39.12
2023-05-01T13:46:52.189Z,40.72
2023-05-01T13:47:52.259Z,39.43
2023-05-01T13:48:52.176Z,39.04
2023-05-01T13:49:52.124Z,38.74
2023-05-01T13:50:52.142Z,39.64
2023-05-01T13:51:52.110Z,37.64
2023-05-01T13:52:52.104Z,38.74
2023-05-01T13:53:52.137Z,40.04
2023-05-01T13:54:52.088Z,41.03
2023-05-01T13:55:52.077Z,41.05
2023-05-01T13:56:52.073Z,40.86
2023-05-01T13:57:52.076Z,41.46
2023-05-01T13:58:52.050Z,42.05
2023-05-01T13:59:52.056Z,39.67
2023-05-01T14:00:52.102Z,41.77
2023-05-01T14:01:52.178Z,40.88
2023-05-01T14:02:52.095Z,41.69
2023-05-01T14:03:52.099Z,40.80
2023-05-01T14:04:52.031Z,40.00
2023-05-01T14:05:51.952Z,41.39
2023-05-01T14:06:52.148Z,39.69
2023-05-01T14:07:51.938Z,42.19
2023-05-01T14:08:51.969Z,40.91
2023-05-01T14:09:51.947Z,41.31
2023-05-01T14:10:51.948Z,41.52
2023-05-01T14:11:51.901Z,39.91
2023-05-01T14:12:51.895Z,41.02
2023-05-01T14:13:51.888Z,41.11
2023-05-01T14:14:51.872Z,40.22
2023-05-01T14:15:51.862Z,40.91
2023-05-01T14:16:52.017Z,43.12
2023-05-01T14:17:51.872Z,40.03
2023-05-01T14:18:51.840Z,39.13
2023-05-01T14:19:51.808Z,39.05
2023-05-01T14:20:51.821Z,40.35
2023-05-01T14:21:51.821Z,39.97
2023-05-01T14:22:51.826Z,39.87
2023-05-01T14:23:51.788Z,39.87
2023-05-01T14:24:51.758Z,40.87
2023-05-01T14:25:51.753Z,40.07
2023-05-01T14:26:51.748Z,43.68
2023-05-01T14:27:51.745Z,43.08
2023-05-01T14:28:51.734Z,40.87
2023-05-01T14:29:51.715Z,41.27
2023-05-01T14:30:51.723Z,40.67
2023-05-01T14:31:51.672Z,40.97
2023-05-01T14:32:51.741Z,40.17
2023-05-01T14:33:51.671Z,43.18
2023-05-01T14:34:51.728Z,39.47
2023-05-01T14:35:51.624Z,42.47
2023-05-01T14:36:51.651Z,40.17
2023-05-01T14:37:51.606Z,42.97
2023-05-01T14:38:51.650Z,43.68
2023-05-01T14:39:51.624Z,42.77
2023-05-01T14:40:51.590Z,40.07
2023-05-01T14:41:51.586Z,40.39
2023-05-01T14:42:51.593Z,43.30
2023-05-01T14:43:51.550Z,42.80
2023-05-01T14:44:51.560Z,41.99
2023-05-01T14:45:51.624Z,42.69
2023-05-01T14:46:52.035Z,41.39
2023-05-01T14:47:51.560Z,42.49
2023-05-01T14:48:51.530Z,43.12
2023-05-01T14:49:51.524Z,40.71
2023-05-01T14:50:51.498Z,42.41
2023-05-01T14:51:51.492Z,40.71
2023-05-01T14:52:51.483Z,41.01
2023-05-01T14:53:51.463Z,41.21
2023-05-01T14:54:51.442Z,43.72
2023-05-01T14:55:51.438Z,43.72
2023-05-01T14:56:51.464Z,42.44
2023-05-01T14:57:51.420Z,43.24
2023-05-01T14:58:51.426Z,42.44
2023-05-01T14:59:51.390Z,42.54
2023-05-01T15:00:51.389Z,45.45
2023-05-01T15:01:51.503Z,43.94
2023-05-01T15:02:51.556Z,42.24
2023-05-01T15:03:51.446Z,43.46
2023-05-01T15:04:51.356Z,43.26
2023-05-01T15:05:51.332Z,43.36
2023-05-01T15:06:51.463Z,43.66
2023-05-01T15:07:51.321Z,41.35
2023-05-01T15:08:51.330Z,43.06
2023-05-01T15:09:51.278Z,42.66
2023-05-01T15:10:51.289Z,44.76
2023-05-01T15:11:51.299Z,43.16
2023-05-01T15:12:51.277Z,45.87
2023-05-01T15:13:51.242Z,42.96
2023-05-01T15:14:51.258Z,44.56
2023-05-01T15:15:51.249Z,45.57
2023-05-01T15:16:51.317Z,43.36
2023-05-01T15:17:51.235Z,41.75
2023-05-01T15:18:51.213Z,41.75
2023-05-01T15:19:51.229Z,41.83
2023-05-01T15:20:51.213Z,42.33
2023-05-01T15:21:51.168Z,42.24
2023-05-01T15:22:51.170Z,41.13
2023-05-01T15:23:51.136Z,41.23
2023-05-01T15:24:51.155Z,42.83
2023-05-01T15:25:51.150Z,45.04
2023-05-01T15:26:51.113Z,42.03
2023-05-01T15:27:51.100Z,43.84
2023-05-01T15:28:51.109Z,41.83
2023-05-01T15:29:51.069Z,43.14
2023-05-01T15:30:51.115Z,43.14
2023-05-01T15:32:01.232Z,42.13
2023-05-01T15:32:51.115Z,42.83
2023-05-01T15:33:51.028Z,43.74
2023-05-01T15:34:51.033Z,42.33
2023-05-01T15:35:51.106Z,42.83
2023-05-01T15:36:51.033Z,45.25
2023-05-01T15:37:50.990Z,43.14
2023-05-01T15:38:50.991Z,43.14
2023-05-01T15:39:50.964Z,44.95
2023-05-01T15:40:50.966Z,45.14
2023-05-01T15:41:50.982Z,42.54
2023-05-01T15:42:50.951Z,44.04
2023-05-01T15:43:50.956Z,42.63
2023-05-01T15:44:50.935Z,42.63
2023-05-01T15:45:51.076Z,42.33
2023-05-01T15:46:51.036Z,43.44
2023-05-01T15:47:50.984Z,42.83
2023-05-01T15:48:50.903Z,41.53
2023-05-01T15:49:50.882Z,42.74
2023-05-01T15:50:50.888Z,41.43
2023-05-01T15:51:50.846Z,44.14
2023-05-01T15:52:50.851Z,42.63
2023-05-01T15:53:50.832Z,44.34
2023-05-01T15:54:50.864Z,42.74
2023-05-01T15:55:50.798Z,43.04
2023-05-01T15:56:50.798Z,42.24
2023-05-01T15:57:50.780Z,43.74
2023-05-01T15:58:50.777Z,40.73
2023-05-01T15:59:50.757Z,43.04
2023-05-01T16:00:50.864Z,43.84
2023-05-01T16:01:50.846Z,43.14
2023-05-01T16:02:50.867Z,44.62
2023-05-01T16:03:50.817Z,43.52
2023-05-01T16:04:50.719Z,41.41
2023-05-01T16:05:50.677Z,42.02
2023-05-01T16:06:50.773Z,44.22
2023-05-01T16:07:50.673Z,43.32
2023-05-01T16:08:50.668Z,41.41
2023-05-01T16:09:50.656Z,41.82
2023-05-01T16:10:50.619Z,42.52
2023-05-01T16:11:50.656Z,42.41
2023-05-01T16:12:50.727Z,42.02
2023-05-01T16:13:50.627Z,41.01
2023-05-01T16:14:50.625Z,44.82
2023-05-01T16:15:50.612Z,43.22
2023-05-01T16:16:50.601Z,42.41
2023-05-01T16:17:50.643Z,41.61
2023-05-01T16:18:50.582Z,41.11
2023-05-01T16:19:50.568Z,42.52
2023-05-01T16:20:50.519Z,42.91
2023-05-01T16:21:50.578Z,42.02
2023-05-01T16:22:50.512Z,40.21
2023-05-01T16:23:50.541Z,42.21
2023-05-01T16:24:50.518Z,41.82
2023-05-01T16:25:50.508Z,41.82
2023-05-01T16:26:50.458Z,42.82
2023-05-01T16:27:50.462Z,45.53
2023-05-01T16:28:50.453Z,44.02
2023-05-01T16:29:50.509Z,41.51
2023-05-01T16:30:50.431Z,45.42
2023-05-01T16:31:50.463Z,42.52
2023-05-01T16:32:50.523Z,42.52
2023-05-01T16:33:50.399Z,41.91
2023-05-01T16:34:50.370Z,42.82
2023-05-01T16:35:50.405Z,41.51
2023-05-01T16:36:50.398Z,42.11
2023-05-01T16:37:50.351Z,41.31
2023-05-01T16:38:50.381Z,44.12
2023-05-01T16:39:50.330Z,45.22
2023-05-01T16:40:50.324Z,43.22
2023-05-01T16:41:50.674Z,43.02
2023-05-01T16:42:50.297Z,42.11
2023-05-01T16:43:50.295Z,44.12
2023-05-01T16:44:50.274Z,45.12
2023-05-01T16:45:50.340Z,43.32
2023-05-01T16:46:50.283Z,43.42
2023-05-01T16:47:50.295Z,44.22
2023-05-01T16:48:50.217Z,44.32
2023-05-01T16:49:50.224Z,43.94
2023-05-01T16:50:50.208Z,43.84
2023-05-01T16:51:50.220Z,43.54
2023-05-01T16:52:50.211Z,46.04
2023-05-01T16:53:50.207Z,43.54
2023-05-01T16:54:50.160Z,42.33
2023-05-01T16:55:50.165Z,43.54
2023-05-01T16:56:50.152Z,44.74
2023-05-01T16:57:50.177Z,42.74
2023-05-01T16:58:50.158Z,42.94
2023-05-01T16:59:50.124Z,43.44
2023-05-01T17:00:50.113Z,44.14
2023-05-01T17:01:50.124Z,44.54
2023-05-01T17:02:50.134Z,42.94
2023-05-01T17:03:50.166Z,43.34
2023-05-01T17:04:50.243Z,42.33
2023-05-01T17:05:50.058Z,43.16
2023-05-01T17:06:50.212Z,43.36
2023-05-01T17:07:50.037Z,45.57
2023-05-01T17:08:50.080Z,41.96
2023-05-01T17:09:50.013Z,45.37
2023-05-01T17:10:50.044Z,43.46
2023-05-01T17:11:50.023Z,43.06
2023-05-01T17:12:50.025Z,43.36
2023-05-01T17:13:49.974Z,44.46
2023-05-01T17:14:49.973Z,44.26
2023-05-01T17:15:49.988Z,43.76
2023-05-01T17:16:50.477Z,44.99
2023-05-01T17:17:49.996Z,44.08
2023-05-01T17:18:49.930Z,43.98
2023-05-01T17:19:49.924Z,44.48
2023-05-01T17:20:49.885Z,45.29
2023-05-01T17:21:49.887Z,43.58
2023-05-01T17:22:49.864Z,44.08